sensor_id;sensor_type;location;lat;lon;timestamp;temperature;humidity
20827;DHT22;10574;52.508;13.236;2023-04-25T00:00:03;8.60;99.90
20827;DHT22;10574;52.508;13.236;2023-04-25T00:02:33;8.60;99.90
20827;DHT22;10574;52.508;13.236;2023-04-25T00:05:02;8.60;99.90
20827;DHT22;10574;52.508;13.236;2023-04-25T00:07:29;8.70;99.90
20827;DHT22;10574;52.508;13.236;2023-04-25T00:09:59;8.60;99.90
20827;DHT22;10574;52.508;13.236;2023-04-25T00:12:26;8.70;99.90
20827;DHT22;10574;52.508;13.236;2023-04-25T00:14:55;8.60;99.90
20827;DHT22;10574;52.508;13.236;2023-04-25T00:17:24;8.60;99.90
20827;DHT22;10574;52.508;13.236;2023-04-25T00:19:53;8.60;99.90
20827;DHT22;10574;52.508;13.236;2023-04-25T00:22:21;8.60;99.90
20827;DHT22;10574;52.508;13.236;2023-04-25T00:24:49;8.70;99.90
20827;DHT22;10574;52.508;13.236;2023-04-25T00:27:16;8.70;99.90
20827;DHT22;10574;52.508;13.236;2023-04-25T00:29:44;8.70;99.90
20827;DHT22;10574;52.508;13.236;2023-04-25T00:32:12;8.70;99.90
20827;DHT22;10574;52.508;13.236;2023-04-25T00:34:39;8.70;99.90
20827;DHT22;10574;52.508;13.236;2023-04-25T00:37:07;8.70;99.90
20827;DHT22;10574;52.508;13.236;2023-04-25T00:39:34;8.70;99.90
20827;DHT22;10574;52.508;13.236;2023-04-25T00:42:03;8.70;99.90
20827;DHT22;10574;52.508;13.236;2023-04-25T00:44:31;8.70;99.90
20827;DHT22;10574;52.508;13.236;2023-04-25T00:47:00;8.70;99.90
20827;DHT22;10574;52.508;13.236;2023-04-25T00:49:29;8.80;99.90
20827;DHT22;10574;52.508;13.236;2023-04-25T00:51:57;8.70;99.90
20827;DHT22;10574;52.508;13.236;2023-04-25T00:54:25;8.70;99.90
20827;DHT22;10574;52.508;13.236;2023-04-25T00:56:53;8.70;99.90
20827;DHT22;10574;52.508;13.236;2023-04-25T00:59:21;8.70;99.90
20827;DHT22;10574;52.508;13.236;2023-04-25T01:01:49;8.70;99.90
20827;DHT22;10574;52.508;13.236;2023-04-25T01:04:17;8.70;99.90
20827;DHT22;10574;52.508;13.236;2023-04-25T01:06:45;8.70;99.90
20827;DHT22;10574;52.508;13.236;2023-04-25T01:09:13;8.70;99.90
20827;DHT22;10574;52.508;13.236;2023-04-25T01:11:41;8.70;99.90
20827;DHT22;10574;52.508;13.236;2023-04-25T01:14:08;8.70;99.90
20827;DHT22;10574;52.508;13.236;2023-04-25T01:16:36;8.60;99.90
20827;DHT22;10574;52.508;13.236;2023-04-25T01:19:10;8.70;99.90
20827;DHT22;10574;52.508;13.236;2023-04-25T01:21:34;8.70;99.90
20827;DHT22;10574;52.508;13.236;2023-04-25T01:24:02;8.70;99.90
20827;DHT22;10574;52.508;13.236;2023-04-25T01:26:30;8.70;99.90
20827;DHT22;10574;52.508;13.236;2023-04-25T01:28:59;8.60;99.90
20827;DHT22;10574;52.508;13.236;2023-04-25T01:31:27;8.70;99.90
20827;DHT22;10574;52.508;13.236;2023-04-25T01:33:55;8.60;99.90
20827;DHT22;10574;52.508;13.236;2023-04-25T01:36:23;8.60;99.90
20827;DHT22;10574;52.508;13.236;2023-04-25T01:38:50;8.60;99.90
20827;DHT22;10574;52.508;13.236;2023-04-25T01:41:19;8.60;99.90
20827;DHT22;10574;52.508;13.236;2023-04-25T01:43:47;8.60;99.90
20827;DHT22;10574;52.508;13.236;2023-04-25T01:46:15;8.60;99.90
20827;DHT22;10574;52.508;13.236;2023-04-25T01:48:42;8.60;99.90
20827;DHT22;10574;52.508;13.236;2023-04-25T01:51:10;8.60;99.90
20827;DHT22;10574;52.508;13.236;2023-04-25T01:53:38;8.50;99.90
20827;DHT22;10574;52.508;13.236;2023-04-25T01:56:06;8.50;99.90
20827;DHT22;10574;52.508;13.236;2023-04-25T01:58:34;8.50;99.90
20827;DHT22;10574;52.508;13.236;2023-04-25T02:01:02;8.50;99.90
20827;DHT22;10574;52.508;13.236;2023-04-25T02:03:31;8.50;99.90
20827;DHT22;10574;52.508;13.236;2023-04-25T02:05:58;8.60;99.90
20827;DHT22;10574;52.508;13.236;2023-04-25T02:08:26;8.60;99.90
20827;DHT22;10574;52.508;13.236;2023-04-25T02:10:54;8.60;99.90
20827;DHT22;10574;52.508;13.236;2023-04-25T02:13:21;8.50;99.90
20827;DHT22;10574;52.508;13.236;2023-04-25T02:15:49;8.50;99.90
20827;DHT22;10574;52.508;13.236;2023-04-25T02:18:16;8.50;99.90
20827;DHT22;10574;52.508;13.236;2023-04-25T02:20:45;8.50;99.90
20827;DHT22;10574;52.508;13.236;2023-04-25T02:23:13;8.50;99.90
20827;DHT22;10574;52.508;13.236;2023-04-25T02:25:42;8.50;99.90
20827;DHT22;10574;52.508;13.236;2023-04-25T02:28:09;8.50;99.90
20827;DHT22;10574;52.508;13.236;2023-04-25T02:30:37;8.50;99.90
20827;DHT22;10574;52.508;13.236;2023-04-25T02:33:05;8.50;99.90
20827;DHT22;10574;52.508;13.236;2023-04-25T02:35:32;8.50;99.90
20827;DHT22;10574;52.508;13.236;2023-04-25T02:38:00;8.50;99.90
20827;DHT22;10574;52.508;13.236;2023-04-25T02:40:28;8.50;99.90
20827;DHT22;10574;52.508;13.236;2023-04-25T02:42:56;8.50;99.90
20827;DHT22;10574;52.508;13.236;2023-04-25T02:45:23;8.50;99.90
20827;DHT22;10574;52.508;13.236;2023-04-25T02:47:51;8.50;99.90
20827;DHT22;10574;52.508;13.236;2023-04-25T02:50:19;8.40;99.90
20827;DHT22;10574;52.508;13.236;2023-04-25T02:52:46;8.40;99.90
20827;DHT22;10574;52.508;13.236;2023-04-25T02:55:14;8.40;99.90
20827;DHT22;10574;52.508;13.236;2023-04-25T02:57:42;8.40;99.90
20827;DHT22;10574;52.508;13.236;2023-04-25T03:00:10;8.40;99.90
20827;DHT22;10574;52.508;13.236;2023-04-25T03:02:38;8.40;99.90
20827;DHT22;10574;52.508;13.236;2023-04-25T03:05:06;8.40;99.90
20827;DHT22;10574;52.508;13.236;2023-04-25T03:07:33;8.40;99.90
20827;DHT22;10574;52.508;13.236;2023-04-25T03:10:01;8.40;99.90
20827;DHT22;10574;52.508;13.236;2023-04-25T03:12:28;8.40;99.90
20827;DHT22;10574;52.508;13.236;2023-04-25T03:14:56;8.30;99.90
20827;DHT22;10574;52.508;13.236;2023-04-25T03:17:24;8.30;99.90
20827;DHT22;10574;52.508;13.236;2023-04-25T03:19:51;8.30;99.90
20827;DHT22;10574;52.508;13.236;2023-04-25T03:22:19;8.40;99.90
20827;DHT22;10574;52.508;13.236;2023-04-25T03:24:46;8.30;99.90
20827;DHT22;10574;52.508;13.236;2023-04-25T03:27:14;8.30;99.90
20827;DHT22;10574;52.508;13.236;2023-04-25T03:29:42;8.40;99.90
20827;DHT22;10574;52.508;13.236;2023-04-25T03:32:09;8.30;99.90
20827;DHT22;10574;52.508;13.236;2023-04-25T03:34:37;8.30;99.90
20827;DHT22;10574;52.508;13.236;2023-04-25T03:37:05;8.30;99.90
20827;DHT22;10574;52.508;13.236;2023-04-25T03:39:32;8.30;99.90
20827;DHT22;10574;52.508;13.236;2023-04-25T03:42:00;8.30;99.90
20827;DHT22;10574;52.508;13.236;2023-04-25T03:44:29;8.30;99.90
20827;DHT22;10574;52.508;13.236;2023-04-25T03:46:57;8.30;99.90
20827;DHT22;10574;52.508;13.236;2023-04-25T03:49:25;8.30;99.90
20827;DHT22;10574;52.508;13.236;2023-04-25T03:51:52;8.30;99.90
20827;DHT22;10574;52.508;13.236;2023-04-25T03:54:20;8.30;99.90
20827;DHT22;10574;52.508;13.236;2023-04-25T03:56:47;8.30;99.90
20827;DHT22;10574;52.508;13.236;2023-04-25T03:59:15;8.30;99.90
20827;DHT22;10574;52.508;13.236;2023-04-25T04:01:43;8.20;99.90
20827;DHT22;10574;52.508;13.236;2023-04-25T04:04:10;8.20;99.90
20827;DHT22;10574;52.508;13.236;2023-04-25T04:06:38;8.20;99.90
20827;DHT22;10574;52.508;13.236;2023-04-25T04:09:06;8.20;99.90
20827;DHT22;10574;52.508;13.236;2023-04-25T04:11:35;8.30;99.90
20827;DHT22;10574;52.508;13.236;2023-04-25T04:14:06;8.30;99.90
20827;DHT22;10574;52.508;13.236;2023-04-25T04:16:33;8.30;99.90
20827;DHT22;10574;52.508;13.236;2023-04-25T04:19:01;8.30;99.90
20827;DHT22;10574;52.508;13.236;2023-04-25T04:21:29;8.30;99.90
20827;DHT22;10574;52.508;13.236;2023-04-25T04:23:58;8.30;99.90
20827;DHT22;10574;52.508;13.236;2023-04-25T04:26:26;8.30;99.90
20827;DHT22;10574;52.508;13.236;2023-04-25T04:28:54;8.30;99.90
20827;DHT22;10574;52.508;13.236;2023-04-25T04:31:21;8.40;99.90
20827;DHT22;10574;52.508;13.236;2023-04-25T04:33:50;8.30;99.90
20827;DHT22;10574;52.508;13.236;2023-04-25T04:36:18;8.40;99.90
20827;DHT22;10574;52.508;13.236;2023-04-25T04:38:47;8.40;99.90
20827;DHT22;10574;52.508;13.236;2023-04-25T04:41:15;8.40;99.90
20827;DHT22;10574;52.508;13.236;2023-04-25T04:43:43;8.40;99.90
20827;DHT22;10574;52.508;13.236;2023-04-25T04:46:11;8.40;99.90
20827;DHT22;10574;52.508;13.236;2023-04-25T04:48:39;8.40;99.90
20827;DHT22;10574;52.508;13.236;2023-04-25T04:51:07;8.50;99.90
20827;DHT22;10574;52.508;13.236;2023-04-25T04:53:34;8.50;99.90
20827;DHT22;10574;52.508;13.236;2023-04-25T04:56:02;8.50;99.90
20827;DHT22;10574;52.508;13.236;2023-04-25T04:58:29;8.50;99.90
20827;DHT22;10574;52.508;13.236;2023-04-25T05:00:57;8.50;99.90
20827;DHT22;10574;52.508;13.236;2023-04-25T05:03:25;8.50;99.90
20827;DHT22;10574;52.508;13.236;2023-04-25T05:05:53;8.50;99.90
20827;DHT22;10574;52.508;13.236;2023-04-25T05:08:21;8.60;99.90
20827;DHT22;10574;52.508;13.236;2023-04-25T05:10:48;8.60;99.90
20827;DHT22;10574;52.508;13.236;2023-04-25T05:13:16;8.60;99.90
20827;DHT22;10574;52.508;13.236;2023-04-25T05:15:44;8.70;99.90
20827;DHT22;10574;52.508;13.236;2023-04-25T05:18:11;8.60;99.90
20827;DHT22;10574;52.508;13.236;2023-04-25T05:20:39;8.60;99.90
20827;DHT22;10574;52.508;13.236;2023-04-25T05:23:07;8.60;99.90
20827;DHT22;10574;52.508;13.236;2023-04-25T05:25:34;8.60;99.90
20827;DHT22;10574;52.508;13.236;2023-04-25T05:28:02;8.60;99.90
20827;DHT22;10574;52.508;13.236;2023-04-25T05:30:29;8.60;99.90
20827;DHT22;10574;52.508;13.236;2023-04-25T05:32:57;8.70;99.90
20827;DHT22;10574;52.508;13.236;2023-04-25T05:35:25;8.60;99.90
20827;DHT22;10574;52.508;13.236;2023-04-25T05:37:52;8.60;99.90
20827;DHT22;10574;52.508;13.236;2023-04-25T05:40:20;8.50;99.90
20827;DHT22;10574;52.508;13.236;2023-04-25T05:42:48;8.50;99.90
20827;DHT22;10574;52.508;13.236;2023-04-25T05:45:16;8.50;99.90
20827;DHT22;10574;52.508;13.236;2023-04-25T05:47:44;8.60;99.90
20827;DHT22;10574;52.508;13.236;2023-04-25T05:50:12;8.50;99.90
20827;DHT22;10574;52.508;13.236;2023-04-25T05:52:39;8.50;99.90
20827;DHT22;10574;52.508;13.236;2023-04-25T05:55:07;8.60;99.90
20827;DHT22;10574;52.508;13.236;2023-04-25T05:57:35;8.70;99.90
20827;DHT22;10574;52.508;13.236;2023-04-25T06:00:03;8.70;99.90
20827;DHT22;10574;52.508;13.236;2023-04-25T06:02:32;8.70;99.90
20827;DHT22;10574;52.508;13.236;2023-04-25T06:05:00;8.60;99.90
20827;DHT22;10574;52.508;13.236;2023-04-25T06:07:29;8.70;99.90
20827;DHT22;10574;52.508;13.236;2023-04-25T06:09:57;8.80;99.90
20827;DHT22;10574;52.508;13.236;2023-04-25T06:12:26;8.80;99.90
20827;DHT22;10574;52.508;13.236;2023-04-25T06:14:53;8.80;99.90
20827;DHT22;10574;52.508;13.236;2023-04-25T06:17:21;8.90;99.90
20827;DHT22;10574;52.508;13.236;2023-04-25T06:19:49;8.90;99.90
20827;DHT22;10574;52.508;13.236;2023-04-25T06:22:16;8.90;99.90
20827;DHT22;10574;52.508;13.236;2023-04-25T06:24:44;8.90;99.90
20827;DHT22;10574;52.508;13.236;2023-04-25T06:27:12;8.90;99.90
20827;DHT22;10574;52.508;13.236;2023-04-25T06:29:40;8.80;99.90
20827;DHT22;10574;52.508;13.236;2023-04-25T06:32:07;8.80;99.90
20827;DHT22;10574;52.508;13.236;2023-04-25T06:34:35;8.80;99.90
20827;DHT22;10574;52.508;13.236;2023-04-25T06:37:03;8.90;99.90
20827;DHT22;10574;52.508;13.236;2023-04-25T06:39:31;8.90;99.90
20827;DHT22;10574;52.508;13.236;2023-04-25T06:41:59;8.90;99.90
20827;DHT22;10574;52.508;13.236;2023-04-25T06:44:26;8.80;99.90
20827;DHT22;10574;52.508;13.236;2023-04-25T06:46:55;8.80;99.90
20827;DHT22;10574;52.508;13.236;2023-04-25T06:49:23;8.80;99.90
20827;DHT22;10574;52.508;13.236;2023-04-25T06:51:51;8.80;99.90
20827;DHT22;10574;52.508;13.236;2023-04-25T06:54:18;8.70;99.90
20827;DHT22;10574;52.508;13.236;2023-04-25T06:56:47;8.60;99.90
20827;DHT22;10574;52.508;13.236;2023-04-25T06:59:14;8.60;99.90
20827;DHT22;10574;52.508;13.236;2023-04-25T07:01:42;8.60;99.90
20827;DHT22;10574;52.508;13.236;2023-04-25T07:04:10;8.60;99.90
20827;DHT22;10574;52.508;13.236;2023-04-25T07:06:37;8.50;99.90
20827;DHT22;10574;52.508;13.236;2023-04-25T07:09:06;8.40;99.90
20827;DHT22;10574;52.508;13.236;2023-04-25T07:11:35;8.40;99.90
20827;DHT22;10574;52.508;13.236;2023-04-25T07:14:03;8.30;99.90
20827;DHT22;10574;52.508;13.236;2023-04-25T07:16:31;8.30;99.90
20827;DHT22;10574;52.508;13.236;2023-04-25T07:18:58;8.30;99.90
20827;DHT22;10574;52.508;13.236;2023-04-25T07:21:26;8.30;99.90
20827;DHT22;10574;52.508;13.236;2023-04-25T07:23:54;8.30;99.90
20827;DHT22;10574;52.508;13.236;2023-04-25T07:26:21;8.30;99.90
20827;DHT22;10574;52.508;13.236;2023-04-25T07:28:49;8.50;99.90
20827;DHT22;10574;52.508;13.236;2023-04-25T07:31:18;8.60;99.90
20827;DHT22;10574;52.508;13.236;2023-04-25T07:33:45;8.70;99.90
20827;DHT22;10574;52.508;13.236;2023-04-25T07:36:13;8.80;99.90
20827;DHT22;10574;52.508;13.236;2023-04-25T07:38:42;8.80;99.90
20827;DHT22;10574;52.508;13.236;2023-04-25T07:41:09;8.80;99.90
20827;DHT22;10574;52.508;13.236;2023-04-25T07:43:37;8.80;99.90
20827;DHT22;10574;52.508;13.236;2023-04-25T07:46:05;8.80;99.90
20827;DHT22;10574;52.508;13.236;2023-04-25T07:48:32;8.80;99.90
20827;DHT22;10574;52.508;13.236;2023-04-25T07:51:00;8.80;99.90
20827;DHT22;10574;52.508;13.236;2023-04-25T07:53:27;8.80;99.90
20827;DHT22;10574;52.508;13.236;2023-04-25T07:55:55;8.90;99.90
20827;DHT22;10574;52.508;13.236;2023-04-25T07:58:23;8.90;99.90
20827;DHT22;10574;52.508;13.236;2023-04-25T08:00:50;8.90;99.90
20827;DHT22;10574;52.508;13.236;2023-04-25T08:03:18;9.00;99.90
20827;DHT22;10574;52.508;13.236;2023-04-25T08:05:46;8.90;99.90
20827;DHT22;10574;52.508;13.236;2023-04-25T08:08:14;9.00;99.90
20827;DHT22;10574;52.508;13.236;2023-04-25T08:10:42;8.90;99.90
20827;DHT22;10574;52.508;13.236;2023-04-25T08:13:10;8.90;99.90
20827;DHT22;10574;52.508;13.236;2023-04-25T08:15:37;9.10;99.90
20827;DHT22;10574;52.508;13.236;2023-04-25T08:18:05;9.30;99.90
20827;DHT22;10574;52.508;13.236;2023-04-25T08:20:33;9.50;99.90
20827;DHT22;10574;52.508;13.236;2023-04-25T08:23:00;9.80;99.90
20827;DHT22;10574;52.508;13.236;2023-04-25T08:25:28;9.80;99.90
20827;DHT22;10574;52.508;13.236;2023-04-25T08:27:55;9.70;99.90
20827;DHT22;10574;52.508;13.236;2023-04-25T08:30:23;9.70;99.90
20827;DHT22;10574;52.508;13.236;2023-04-25T08:32:51;9.70;99.90
20827;DHT22;10574;52.508;13.236;2023-04-25T08:35:19;9.80;99.90
20827;DHT22;10574;52.508;13.236;2023-04-25T08:37:47;9.90;99.90
20827;DHT22;10574;52.508;13.236;2023-04-25T08:40:16;10.10;99.90
20827;DHT22;10574;52.508;13.236;2023-04-25T08:42:43;10.10;99.90
20827;DHT22;10574;52.508;13.236;2023-04-25T08:45:11;10.20;99.90
20827;DHT22;10574;52.508;13.236;2023-04-25T08:47:39;10.40;99.90
20827;DHT22;10574;52.508;13.236;2023-04-25T08:50:09;10.80;99.90
20827;DHT22;10574;52.508;13.236;2023-04-25T08:52:39;11.20;99.90
20827;DHT22;10574;52.508;13.236;2023-04-25T08:55:07;11.70;99.90
20827;DHT22;10574;52.508;13.236;2023-04-25T08:57:37;12.00;99.90
20827;DHT22;10574;52.508;13.236;2023-04-25T09:00:06;12.00;99.90
20827;DHT22;10574;52.508;13.236;2023-04-25T09:02:34;12.20;99.90
20827;DHT22;10574;52.508;13.236;2023-04-25T09:05:03;12.70;99.90
20827;DHT22;10574;52.508;13.236;2023-04-25T09:07:31;12.90;99.90
20827;DHT22;10574;52.508;13.236;2023-04-25T09:09:59;12.90;99.90
20827;DHT22;10574;52.508;13.236;2023-04-25T09:12:29;12.90;99.90
20827;DHT22;10574;52.508;13.236;2023-04-25T09:17:37;12.00;99.90
20827;DHT22;10574;52.508;13.236;2023-04-25T09:20:13;12.00;99.90
20827;DHT22;10574;52.508;13.236;2023-04-25T09:22:41;12.00;99.90
20827;DHT22;10574;52.508;13.236;2023-04-25T09:25:10;12.20;99.90
20827;DHT22;10574;52.508;13.236;2023-04-25T09:27:52;12.10;99.90
20827;DHT22;10574;52.508;13.236;2023-04-25T09:30:28;12.00;99.90
20827;DHT22;10574;52.508;13.236;2023-04-25T09:32:57;11.80;99.90
20827;DHT22;10574;52.508;13.236;2023-04-25T09:35:26;11.80;99.90
20827;DHT22;10574;52.508;13.236;2023-04-25T09:37:55;11.90;99.90
20827;DHT22;10574;52.508;13.236;2023-04-25T09:40:23;12.10;99.90
20827;DHT22;10574;52.508;13.236;2023-04-25T09:42:50;12.00;99.90
20827;DHT22;10574;52.508;13.236;2023-04-25T09:45:18;11.60;99.90
20827;DHT22;10574;52.508;13.236;2023-04-25T09:47:46;11.50;99.90
20827;DHT22;10574;52.508;13.236;2023-04-25T09:50:15;11.50;99.90
20827;DHT22;10574;52.508;13.236;2023-04-25T09:52:44;11.80;99.90
20827;DHT22;10574;52.508;13.236;2023-04-25T09:55:12;11.70;99.90
20827;DHT22;10574;52.508;13.236;2023-04-25T09:57:39;11.70;99.90
20827;DHT22;10574;52.508;13.236;2023-04-25T10:00:09;11.70;99.90
20827;DHT22;10574;52.508;13.236;2023-04-25T10:02:42;11.60;99.90
20827;DHT22;10574;52.508;13.236;2023-04-25T10:05:30;11.40;99.90
20827;DHT22;10574;52.508;13.236;2023-04-25T10:08:02;11.40;99.90
20827;DHT22;10574;52.508;13.236;2023-04-25T10:10:32;11.20;99.90
20827;DHT22;10574;52.508;13.236;2023-04-25T10:13:04;11.20;99.90
20827;DHT22;10574;52.508;13.236;2023-04-25T10:15:34;11.10;99.90
20827;DHT22;10574;52.508;13.236;2023-04-25T10:18:06;11.00;99.90
20827;DHT22;10574;52.508;13.236;2023-04-25T10:20:34;11.10;99.90
20827;DHT22;10574;52.508;13.236;2023-04-25T10:23:14;11.20;99.90
20827;DHT22;10574;52.508;13.236;2023-04-25T10:25:35;11.40;99.90
20827;DHT22;10574;52.508;13.236;2023-04-25T10:28:04;11.40;99.90
20827;DHT22;10574;52.508;13.236;2023-04-25T10:30:32;11.40;99.90
20827;DHT22;10574;52.508;13.236;2023-04-25T10:33:00;11.30;99.90
20827;DHT22;10574;52.508;13.236;2023-04-25T10:35:29;11.20;99.90
20827;DHT22;10574;52.508;13.236;2023-04-25T10:38:08;11.10;99.90
20827;DHT22;10574;52.508;13.236;2023-04-25T10:40:34;11.00;99.90
20827;DHT22;10574;52.508;13.236;2023-04-25T10:43:33;11.00;99.90
20827;DHT22;10574;52.508;13.236;2023-04-25T10:46:12;11.20;99.90
20827;DHT22;10574;52.508;13.236;2023-04-25T10:48:32;11.30;99.90
20827;DHT22;10574;52.508;13.236;2023-04-25T10:51:10;11.20;99.90
20827;DHT22;10574;52.508;13.236;2023-04-25T10:53:38;11.30;99.90
20827;DHT22;10574;52.508;13.236;2023-04-25T10:56:19;11.40;99.90
20827;DHT22;10574;52.508;13.236;2023-04-25T10:58:48;11.50;99.90
20827;DHT22;10574;52.508;13.236;2023-04-25T11:01:21;11.60;99.90
20827;DHT22;10574;52.508;13.236;2023-04-25T11:03:48;11.60;99.90
20827;DHT22;10574;52.508;13.236;2023-04-25T11:08:56;11.00;99.90
20827;DHT22;10574;52.508;13.236;2023-04-25T11:11:24;10.80;99.90
20827;DHT22;10574;52.508;13.236;2023-04-25T11:13:52;10.60;99.90
20827;DHT22;10574;52.508;13.236;2023-04-25T11:16:23;10.30;99.90
20827;DHT22;10574;52.508;13.236;2023-04-25T11:18:52;10.30;99.90
20827;DHT22;10574;52.508;13.236;2023-04-25T11:21:20;10.20;99.90
20827;DHT22;10574;52.508;13.236;2023-04-25T11:23:48;10.10;99.90
20827;DHT22;10574;52.508;13.236;2023-04-25T11:26:16;10.10;99.90
20827;DHT22;10574;52.508;13.236;2023-04-25T11:28:46;10.20;99.90
20827;DHT22;10574;52.508;13.236;2023-04-25T11:31:14;10.30;99.90
20827;DHT22;10574;52.508;13.236;2023-04-25T11:33:42;10.40;99.90
20827;DHT22;10574;52.508;13.236;2023-04-25T11:36:11;10.60;99.90
20827;DHT22;10574;52.508;13.236;2023-04-25T11:38:39;10.60;99.30
20827;DHT22;10574;52.508;13.236;2023-04-25T11:41:07;10.60;99.40
20827;DHT22;10574;52.508;13.236;2023-04-25T11:43:35;10.50;99.90
20827;DHT22;10574;52.508;13.236;2023-04-25T11:46:07;10.50;99.90
20827;DHT22;10574;52.508;13.236;2023-04-25T11:48:42;10.50;99.90
20827;DHT22;10574;52.508;13.236;2023-04-25T11:51:10;10.50;99.90
20827;DHT22;10574;52.508;13.236;2023-04-25T11:53:42;10.80;99.90
20827;DHT22;10574;52.508;13.236;2023-04-25T11:56:12;11.00;99.90
20827;DHT22;10574;52.508;13.236;2023-04-25T11:59:00;10.90;99.80
20827;DHT22;10574;52.508;13.236;2023-04-25T12:01:33;10.90;99.90
20827;DHT22;10574;52.508;13.236;2023-04-25T12:04:17;11.10;99.90
20827;DHT22;10574;52.508;13.236;2023-04-25T12:06:42;11.20;99.90
20827;DHT22;10574;52.508;13.236;2023-04-25T12:09:11;11.20;99.90
20827;DHT22;10574;52.508;13.236;2023-04-25T12:11:42;11.10;99.80
20827;DHT22;10574;52.508;13.236;2023-04-25T12:14:23;11.00;98.70
20827;DHT22;10574;52.508;13.236;2023-04-25T12:16:51;11.00;98.90
20827;DHT22;10574;52.508;13.236;2023-04-25T12:19:20;11.00;98.20
20827;DHT22;10574;52.508;13.236;2023-04-25T12:21:49;11.00;98.30
20827;DHT22;10574;52.508;13.236;2023-04-25T12:24:25;11.20;98.10
20827;DHT22;10574;52.508;13.236;2023-04-25T12:27:03;11.20;98.60
20827;DHT22;10574;52.508;13.236;2023-04-25T12:29:32;11.30;98.10
20827;DHT22;10574;52.508;13.236;2023-04-25T12:32:00;11.10;99.10
20827;DHT22;10574;52.508;13.236;2023-04-25T12:34:32;11.10;99.40
20827;DHT22;10574;52.508;13.236;2023-04-25T12:37:03;11.10;99.40
20827;DHT22;10574;52.508;13.236;2023-04-25T12:39:30;11.20;99.70
20827;DHT22;10574;52.508;13.236;2023-04-25T12:41:58;10.90;99.00
20827;DHT22;10574;52.508;13.236;2023-04-25T12:44:26;10.80;99.20
20827;DHT22;10574;52.508;13.236;2023-04-25T12:46:54;10.70;99.90
20827;DHT22;10574;52.508;13.236;2023-04-25T12:49:22;10.80;99.80
20827;DHT22;10574;52.508;13.236;2023-04-25T12:51:49;10.70;99.90
20827;DHT22;10574;52.508;13.236;2023-04-25T12:54:18;10.80;99.90
20827;DHT22;10574;52.508;13.236;2023-04-25T12:56:46;10.90;99.90
20827;DHT22;10574;52.508;13.236;2023-04-25T12:59:14;11.00;99.90
20827;DHT22;10574;52.508;13.236;2023-04-25T13:01:42;11.20;99.90
20827;DHT22;10574;52.508;13.236;2023-04-25T13:04:11;11.10;99.90
20827;DHT22;10574;52.508;13.236;2023-04-25T13:06:39;11.20;99.00
20827;DHT22;10574;52.508;13.236;2023-04-25T13:09:10;11.20;98.90
20827;DHT22;10574;52.508;13.236;2023-04-25T13:11:38;11.30;99.60
20827;DHT22;10574;52.508;13.236;2023-04-25T13:14:07;11.50;99.00
20827;DHT22;10574;52.508;13.236;2023-04-25T13:16:35;11.60;98.50
20827;DHT22;10574;52.508;13.236;2023-04-25T13:19:02;11.60;98.30
20827;DHT22;10574;52.508;13.236;2023-04-25T13:21:31;11.50;97.40
20827;DHT22;10574;52.508;13.236;2023-04-25T13:24:03;11.50;99.40
20827;DHT22;10574;52.508;13.236;2023-04-25T13:26:31;11.50;98.70
20827;DHT22;10574;52.508;13.236;2023-04-25T13:28:58;11.40;98.70
20827;DHT22;10574;52.508;13.236;2023-04-25T13:31:27;11.40;99.70
20827;DHT22;10574;52.508;13.236;2023-04-25T13:33:54;11.20;99.30
20827;DHT22;10574;52.508;13.236;2023-04-25T13:36:23;11.10;99.50
20827;DHT22;10574;52.508;13.236;2023-04-25T13:38:52;11.20;99.90
20827;DHT22;10574;52.508;13.236;2023-04-25T13:41:20;11.30;99.90
20827;DHT22;10574;52.508;13.236;2023-04-25T13:43:48;11.40;99.70
20827;DHT22;10574;52.508;13.236;2023-04-25T13:46:17;11.40;99.00
20827;DHT22;10574;52.508;13.236;2023-04-25T13:48:45;11.40;99.90
20827;DHT22;10574;52.508;13.236;2023-04-25T13:51:15;11.40;99.90
20827;DHT22;10574;52.508;13.236;2023-04-25T13:53:44;11.40;99.90
20827;DHT22;10574;52.508;13.236;2023-04-25T13:56:12;11.30;99.90
20827;DHT22;10574;52.508;13.236;2023-04-25T13:58:40;11.10;99.70
20827;DHT22;10574;52.508;13.236;2023-04-25T14:01:07;10.90;99.90
20827;DHT22;10574;52.508;13.236;2023-04-25T14:03:35;10.70;99.50
20827;DHT22;10574;52.508;13.236;2023-04-25T14:06:03;10.60;99.90
20827;DHT22;10574;52.508;13.236;2023-04-25T14:08:31;10.50;99.90
20827;DHT22;10574;52.508;13.236;2023-04-25T14:10:59;10.50;99.90
20827;DHT22;10574;52.508;13.236;2023-04-25T14:13:27;10.50;99.90
20827;DHT22;10574;52.508;13.236;2023-04-25T14:15:55;10.30;99.90
20827;DHT22;10574;52.508;13.236;2023-04-25T14:18:22;10.20;99.90
20827;DHT22;10574;52.508;13.236;2023-04-25T14:20:50;10.20;99.90
20827;DHT22;10574;52.508;13.236;2023-04-25T14:23:18;10.10;99.90
20827;DHT22;10574;52.508;13.236;2023-04-25T14:25:45;10.10;99.90
20827;DHT22;10574;52.508;13.236;2023-04-25T14:28:14;10.10;99.90
20827;DHT22;10574;52.508;13.236;2023-04-25T14:30:41;10.20;99.90
20827;DHT22;10574;52.508;13.236;2023-04-25T14:33:09;10.30;99.90
20827;DHT22;10574;52.508;13.236;2023-04-25T14:35:37;10.30;99.90
20827;DHT22;10574;52.508;13.236;2023-04-25T14:38:05;10.40;99.90
20827;DHT22;10574;52.508;13.236;2023-04-25T14:40:32;10.50;99.90
20827;DHT22;10574;52.508;13.236;2023-04-25T14:43:00;10.50;99.90
20827;DHT22;10574;52.508;13.236;2023-04-25T14:45:28;10.50;99.90
20827;DHT22;10574;52.508;13.236;2023-04-25T14:47:56;10.50;99.90
20827;DHT22;10574;52.508;13.236;2023-04-25T14:50:23;10.50;99.90
20827;DHT22;10574;52.508;13.236;2023-04-25T14:52:51;10.50;99.90
20827;DHT22;10574;52.508;13.236;2023-04-25T14:55:19;10.40;99.90
20827;DHT22;10574;52.508;13.236;2023-04-25T14:57:47;10.30;99.90
20827;DHT22;10574;52.508;13.236;2023-04-25T15:00:15;10.30;99.90
20827;DHT22;10574;52.508;13.236;2023-04-25T15:02:43;10.30;99.90
20827;DHT22;10574;52.508;13.236;2023-04-25T15:05:10;10.30;99.90
20827;DHT22;10574;52.508;13.236;2023-04-25T15:07:38;10.20;99.90
20827;DHT22;10574;52.508;13.236;2023-04-25T15:10:07;10.20;99.90
20827;DHT22;10574;52.508;13.236;2023-04-25T15:12:37;10.10;99.90
20827;DHT22;10574;52.508;13.236;2023-04-25T15:15:06;10.10;99.90
20827;DHT22;10574;52.508;13.236;2023-04-25T15:17:36;10.10;99.90
20827;DHT22;10574;52.508;13.236;2023-04-25T15:20:10;10.10;99.90
20827;DHT22;10574;52.508;13.236;2023-04-25T15:22:33;10.30;99.90
20827;DHT22;10574;52.508;13.236;2023-04-25T15:25:02;10.50;99.90
20827;DHT22;10574;52.508;13.236;2023-04-25T15:27:29;10.60;99.90
20827;DHT22;10574;52.508;13.236;2023-04-25T15:29:57;10.60;99.90
20827;DHT22;10574;52.508;13.236;2023-04-25T15:32:25;10.60;99.90
20827;DHT22;10574;52.508;13.236;2023-04-25T15:34:53;10.50;99.90
20827;DHT22;10574;52.508;13.236;2023-04-25T15:37:21;10.60;99.90